Time;durP1;ratioP1;P1;durP2;ratioP2;P2;SDS_P1;SDS_P2;PMS_P1;PMS_P2;Temp;Humidity;BMP_temperature;BMP_pressure;BME280_temperature;BME280_humidity;BME280_pressure;Samples;Min_cycle;Max_cycle;Signal;HPM_P1;HPM_P2
2023/09/06 00:02:05;;;;;;;;;7.00;7.00;;;;;29.13;45.83;101541.78;5116705;27;45717;-76
2023/09/06 00:04:30;;;;;;;;;7.00;7.00;;;;;29.16;45.65;101550.22;5116677;27;45564;-76
2023/09/06 00:06:56;;;;;;;;;6.00;5.67;;;;;29.21;45.62;101562.97;5111128;27;45308;-76
2023/09/06 00:09:21;;;;;;;;;6.00;6.00;;;;;29.19;45.66;101548.97;5113408;27;45327;-76
2023/09/06 00:11:46;;;;;;;;;5.33;5.33;;;;;29.17;45.60;101559.09;5116012;27;45536;-77
2023/09/06 00:14:12;;;;;;;;;6.00;5.00;;;;;29.23;45.59;101557.41;5097664;27;45681;-76
2023/09/06 00:16:37;;;;;;;;;8.00;6.00;;;;;29.21;45.53;101554.09;5116064;27;45321;-77
2023/09/06 00:19:03;;;;;;;;;6.33;5.33;;;;;29.17;45.58;101553.72;5116926;27;45362;-77
2023/09/06 00:21:29;;;;;;;;;4.33;4.00;;;;;29.17;45.67;101545.69;5098099;27;45367;-77
2023/09/06 00:23:54;;;;;;;;;5.33;5.33;;;;;29.16;45.67;101552.06;5116232;27;45514;-77
2023/09/06 00:26:20;;;;;;;;;6.67;6.67;;;;;29.17;45.74;101554.53;5116633;27;45363;-76
2023/09/06 00:28:49;;;;;;;;;6.33;6.33;;;;;29.18;45.80;101558.03;5106503;27;45395;-77
2023/09/06 00:31:15;;;;;;;;;8.33;6.33;;;;;29.15;45.69;101553.94;5119795;27;45365;-77
2023/09/06 00:33:41;;;;;;;;;7.00;7.00;;;;;29.22;46.21;101564.63;5117041;27;45409;-77
2023/09/06 00:36:07;;;;;;;;;8.00;8.00;;;;;29.22;45.76;101558.44;5120099;27;45328;-76
2023/09/06 00:38:32;;;;;;;;;7.67;7.33;;;;;29.19;45.87;101554.34;5122608;27;45750;-77
2023/09/06 00:40:57;;;;;;;;;8.00;6.67;;;;;29.20;45.63;101555.97;5120646;27;45542;-77
2023/09/06 00:43:23;;;;;;;;;6.67;5.00;;;;;29.18;45.85;101545.47;5103821;27;46741;-77
2023/09/06 00:45:50;;;;;;;;;8.33;7.00;;;;;29.18;45.48;101558.03;5099149;27;45386;-77
2023/09/06 00:48:29;;;;;;;;;6.67;6.67;;;;;29.22;45.78;101564.63;5112350;27;45493;-77
2023/09/06 00:50:56;;;;;;;;;8.00;6.67;;;;;29.25;45.72;101566.06;5113000;27;45505;-77
2023/09/06 00:53:24;;;;;;;;;10.00;6.33;;;;;29.24;45.61;101561.72;5119190;27;46345;-78
2023/09/06 00:55:50;;;;;;;;;6.00;6.00;;;;;29.21;45.85;101567.50;5118916;27;45316;-77
2023/09/06 00:58:17;;;;;;;;;5.00;5.00;;;;;29.17;45.45;101561.78;5104252;27;45498;-77
2023/09/06 01:00:44;;;;;;;;;6.33;5.00;;;;;29.22;45.72;101566.47;5101518;27;45393;-77
2023/09/06 01:03:10;;;;;;;;;5.67;5.67;;;;;29.17;45.81;101561.78;5119426;27;45519;-77
2023/09/06 01:05:46;;;;;;;;;6.33;5.33;;;;;29.15;45.99;101555.78;5119769;27;45295;-77
2023/09/06 01:08:18;;;;;;;;;6.67;6.67;;;;;29.17;45.33;101567.13;5097856;27;45482;-77
2023/09/06 01:10:44;;;;;;;;;7.33;7.33;;;;;29.17;45.97;101557.22;5113869;27;45473;-77
2023/09/06 01:13:09;;;;;;;;;6.00;6.00;;;;;29.15;45.45;101559.28;5121146;27;47269;-77
2023/09/06 01:15:37;;;;;;;;;6.33;6.00;;;;;29.16;46.02;101560.94;5119071;27;45421;-77
2023/09/06 01:18:05;;;;;;;;;4.00;4.00;;;;;29.17;45.83;101570.59;5100712;27;45254;-77
2023/09/06 01:20:38;;;;;;;;;6.00;6.00;;;;;29.22;45.64;101570.00;5119437;27;45741;-77
2023/09/06 01:23:15;;;;;;;;;6.00;6.00;;;;;29.19;46.20;101573.09;5118046;27;46241;-77
2023/09/06 01:25:41;;;;;;;;;6.00;6.00;;;;;29.15;45.56;101561.97;5118817;27;45457;-77
2023/09/06 01:28:07;;;;;;;;;6.00;5.00;;;;;29.15;45.90;101558.47;5117992;27;45507;-77
2023/09/06 01:30:32;;;;;;;;;6.00;6.00;;;;;29.13;45.84;101561.34;5119384;27;45412;-77
2023/09/06 01:32:57;;;;;;;;;7.00;7.00;;;;;29.20;45.98;101572.03;5118047;27;45520;-77
2023/09/06 01:35:23;;;;;;;;;8.00;6.00;;;;;29.14;45.94;101567.53;5118486;27;45434;-77
2023/09/06 01:37:51;;;;;;;;;5.33;5.33;;;;;29.16;45.90;101563.63;5119395;27;45375;-77
2023/09/06 01:40:19;;;;;;;;;5.33;5.00;;;;;29.20;45.80;101568.56;5118923;27;45220;-77
2023/09/06 01:42:46;;;;;;;;;7.33;5.67;;;;;29.16;45.90;101560.94;5115154;27;45647;-77
2023/09/06 01:45:17;;;;;;;;;6.00;6.00;;;;;29.16;46.10;101558.25;5117332;27;45385;-77
2023/09/06 01:47:42;;;;;;;;;5.00;5.00;;;;;29.18;46.00;101563.41;5118591;27;45366;-77
2023/09/06 01:50:08;;;;;;;;;7.33;7.33;;;;;29.15;46.04;101556.59;5103670;27;45612;-76
2023/09/06 01:52:36;;;;;;;;;6.00;6.00;;;;;29.18;45.90;101564.22;5118706;27;45403;-77
2023/09/06 01:55:04;;;;;;;;;8.00;5.67;;;;;29.19;46.03;101562.38;5118213;27;45505;-77
2023/09/06 01:57:30;;;;;;;;;6.67;6.00;;;;;29.18;45.88;101558.88;5119012;27;45745;-77
2023/09/06 01:59:55;;;;;;;;;6.00;6.00;;;;;29.22;45.57;101564.63;5117636;27;45435;-77
2023/09/06 02:02:20;;;;;;;;;6.00;6.00;;;;;29.17;45.79;101557.22;5099864;27;45317;-77
2023/09/06 02:04:46;;;;;;;;;6.00;6.00;;;;;29.17;45.74;101557.22;5100138;27;45432;-77
2023/09/06 02:07:11;;;;;;;;;6.67;6.67;;;;;29.18;45.75;101560.72;5119027;27;45243;-77
2023/09/06 02:09:36;;;;;;;;;6.67;6.00;;;;;29.20;45.84;101557.84;5117765;27;45589;-77
2023/09/06 02:12:02;;;;;;;;;5.33;5.33;;;;;29.20;46.09;101560.53;5118315;27;45456;-77
2023/09/06 02:14:27;;;;;;;;;6.00;6.00;;;;;29.16;45.72;101552.06;5121571;27;45457;-77
2023/09/06 02:16:53;;;;;;;;;7.00;7.00;;;;;29.16;45.75;101555.59;5118967;27;45546;-77
2023/09/06 02:19:20;;;;;;;;;6.00;6.00;;;;;29.18;45.30;101552.69;5118348;27;45351;-77
2023/09/06 02:21:45;;;;;;;;;7.67;7.33;;;;;29.06;45.71;101533.75;5123877;27;45609;-76
2023/09/06 02:24:11;;;;;;;;;5.67;5.67;;;;;29.13;46.16;101550.63;5103130;27;45342;-77
2023/09/06 02:26:37;;;;;;;;;6.33;6.33;;;;;29.21;45.71;101559.47;5110518;27;45325;-77
2023/09/06 02:29:04;;;;;;;;;7.00;7.00;;;;;29.22;45.84;101569.16;5111742;27;45493;-77
2023/09/06 02:31:29;;;;;;;;;6.00;6.00;;;;;29.15;45.75;101556.59;5118495;27;46260;-77
2023/09/06 02:33:55;;;;;;;;;7.00;6.67;;;;;29.14;45.97;101546.94;5116398;27;45387;-76
2023/09/06 02:36:21;;;;;;;;;4.67;4.67;;;;;29.11;45.86;101539.31;5109389;27;45431;-77
2023/09/06 02:38:47;;;;;;;;;6.00;6.00;;;;;29.10;45.90;101544.88;5112019;27;45388;-77
2023/09/06 02:41:12;;;;;;;;;5.00;5.00;;;;;29.16;46.10;101544.03;5105544;27;46505;-77
2023/09/06 02:43:37;;;;;;;;;4.33;4.33;;;;;29.12;45.84;101545.50;5099255;27;45364;-77
2023/09/06 02:46:03;;;;;;;;;4.33;4.33;;;;;29.21;45.94;101556.78;5128904;27;45417;-78
2023/09/06 02:48:29;;;;;;;;;5.67;5.67;;;;;29.21;45.60;101562.16;5106876;27;45328;-77
2023/09/06 02:50:54;;;;;;;;;4.33;4.00;;;;;29.20;45.50;101557.84;5099428;27;45515;-78
2023/09/06 02:53:22;;;;;;;;;6.00;5.67;;;;;29.17;46.24;101554.53;5097023;27;45398;-77
2023/09/06 02:55:51;;;;;;;;;7.00;6.67;;;;;29.17;46.02;101556.41;5099845;27;45545;-77
2023/09/06 02:58:23;;;;;;;;;7.00;5.67;;;;;29.04;45.59;101538.50;5117323;27;45559;-77
2023/09/06 03:00:49;;;;;;;;;5.33;5.33;;;;;29.21;45.72;101570.19;5099127;27;45437;-77
2023/09/06 03:03:16;;;;;;;;;7.33;7.33;;;;;29.17;45.95;101565.25;5118940;27;45281;-77
2023/09/06 03:05:42;;;;;;;;;6.33;6.33;;;;;29.22;45.99;101570.00;5128586;27;45360;-77
2023/09/06 03:08:09;;;;;;;;;8.00;8.00;;;;;29.18;45.68;101566.06;5117599;27;45454;-76
2023/09/06 03:10:35;;;;;;;;;6.67;6.67;;;;;29.20;45.75;101572.03;5117419;27;46387;-77
2023/09/06 03:13:01;;;;;;;;;9.00;8.00;;;;;29.20;45.45;101566.69;5117357;27;45400;-77
2023/09/06 03:15:30;;;;;;;;;6.00;6.00;;;;;29.21;45.99;101568.34;5125704;27;45474;-77
2023/09/06 03:17:58;;;;;;;;;6.00;6.00;;;;;29.16;46.03;101560.13;5117413;27;45829;-77
2023/09/06 03:20:42;;;;;;;;;6.00;6.00;;;;;29.21;45.77;101565.66;5117462;27;45506;-77
2023/09/06 03:23:18;;;;;;;;;7.33;6.00;;;;;29.16;45.86;101555.59;5117220;27;45453;-76
2023/09/06 03:25:44;;;;;;;;;5.00;5.00;;;;;29.20;45.88;101572.03;5129937;27;45785;-77
2023/09/06 03:28:10;;;;;;;;;7.00;6.00;;;;;29.18;45.67;101574.13;5099271;27;45612;-77
2023/09/06 03:30:35;;;;;;;;;6.33;5.67;;;;;29.21;45.60;101564.81;5116063;27;46094;-77
2023/09/06 03:33:01;;;;;;;;;5.00;5.00;;;;;29.18;45.73;101558.03;5095777;27;45497;-77
2023/09/06 03:35:27;;;;;;;;;6.00;6.00;;;;;29.20;46.10;101552.47;5110803;27;45412;-76
2023/09/06 03:37:53;;;;;;;;;7.00;7.00;;;;;29.19;45.51;101565.06;5097828;27;45465;-77
2023/09/06 03:40:42;;;;;;;;;5.67;5.67;;;;;29.22;45.78;101556.59;5117139;27;46089;-77
2023/09/06 03:43:06;;;;;;;;;6.00;6.00;;;;;29.21;45.66;101556.78;5116083;27;45304;-77
2023/09/06 03:45:35;;;;;;;;;8.67;5.00;;;;;29.20;45.88;101555.16;5117043;27;45535;-78
2023/09/06 03:48:01;;;;;;;;;6.33;6.33;;;;;29.18;45.86;101552.69;5111080;27;45382;-78
2023/09/06 03:50:29;;;;;;;;;6.33;6.33;;;;;29.15;45.85;101553.09;5116656;27;47174;-77
2023/09/06 03:52:55;;;;;;;;;5.00;5.00;;;;;29.20;46.19;101549.81;5117592;27;45366;-78
2023/09/06 03:55:21;;;;;;;;;6.00;6.00;;;;;29.19;45.82;101557.00;5116919;27;45332;-77
2023/09/06 03:57:47;;;;;;;;;5.33;5.33;;;;;29.20;45.95;101561.31;5117463;27;45259;-77
2023/09/06 04:00:31;;;;;;;;;6.67;6.67;;;;;29.17;45.69;101557.22;5096450;27;46634;-77
2023/09/06 04:02:57;;;;;;;;;6.00;6.00;;;;;29.14;45.61;101551.47;5110895;27;45303;-78
2023/09/06 04:05:27;;;;;;;;;4.67;4.33;;;;;29.21;45.65;101554.09;5098223;27;45285;-77
2023/09/06 04:07:57;;;;;;;;;4.33;4.33;;;;;29.15;46.04;101548.56;5116381;27;45581;-77
2023/09/06 04:10:24;;;;;;;;;8.00;7.67;;;;;29.15;45.84;101553.09;5110440;27;45377;-77
2023/09/06 04:12:53;;;;;;;;;7.33;6.67;;;;;29.17;45.53;101557.22;5116333;27;45426;-77
2023/09/06 04:15:23;;;;;;;;;6.00;6.00;;;;;29.19;45.98;101554.34;5115799;27;45359;-76
2023/09/06 04:17:58;;;;;;;;;6.67;5.67;;;;;29.22;45.77;101567.31;5115520;27;45631;-77
2023/09/06 04:20:27;;;;;;;;;5.00;5.00;;;;;29.16;45.86;101555.59;5122789;27;45490;-77
2023/09/06 04:22:55;;;;;;;;;7.00;5.00;;;;;29.21;45.97;101557.63;5116476;27;45396;-77
2023/09/06 04:25:22;;;;;;;;;6.33;6.33;;;;;29.18;45.65;101552.69;5116552;27;45349;-76
2023/09/06 04:27:49;;;;;;;;;7.00;7.00;;;;;29.22;45.85;101558.44;5116748;27;45336;-77
2023/09/06 04:30:17;;;;;;;;;7.00;7.00;;;;;29.21;45.85;101562.16;5116679;27;46656;-77
2023/09/06 04:32:46;;;;;;;;;4.00;4.00;;;;;29.18;45.75;101558.88;5116223;27;45415;-77
2023/09/06 04:35:14;;;;;;;;;7.00;6.33;;;;;29.19;46.05;101559.69;5102384;27;45474;-77
2023/09/06 04:37:40;;;;;;;;;6.33;5.00;;;;;29.21;45.63;101565.66;5114804;27;45303;-77
2023/09/06 04:40:08;;;;;;;;;5.33;5.00;;;;;29.17;45.71;101557.22;5096952;27;47167;-77
2023/09/06 04:42:33;;;;;;;;;6.00;6.00;;;;;29.20;45.91;101569.34;5119560;27;45441;-77
2023/09/06 04:44:59;;;;;;;;;6.33;6.33;;;;;29.19;45.95;101562.38;5116515;27;45337;-77
2023/09/06 04:47:24;;;;;;;;;6.33;6.33;;;;;29.13;45.71;101558.69;5096665;27;45635;-77
2023/09/06 04:49:49;;;;;;;;;6.67;6.00;;;;;29.17;45.48;101559.88;5110852;27;47681;-77
2023/09/06 04:52:15;;;;;;;;;5.67;5.67;;;;;29.17;45.62;101556.41;5115069;27;45278;-77
2023/09/06 04:54:43;;;;;;;;;6.67;6.67;;;;;29.18;45.96;101563.41;5118326;27;45399;-77
2023/09/06 04:57:08;;;;;;;;;6.00;6.00;;;;;29.10;45.49;101552.91;5115390;27;45420;-77
2023/09/06 04:59:36;;;;;;;;;7.33;5.00;;;;;29.19;45.86;101567.72;5115677;27;45881;-77
2023/09/06 05:02:02;;;;;;;;;5.00;5.00;;;;;29.15;45.84;101561.97;5116170;27;45346;-77
2023/09/06 05:04:30;;;;;;;;;6.00;6.00;;;;;29.17;45.83;101567.94;5116179;27;45494;-77
2023/09/06 05:06:55;;;;;;;;;5.67;5.67;;;;;29.20;45.66;101577.41;5115983;27;45588;-76
2023/09/06 05:09:21;;;;;;;;;6.00;6.00;;;;;29.12;45.99;101567.75;5093746;27;45528;-77
2023/09/06 05:11:47;;;;;;;;;5.33;5.33;;;;;29.11;45.43;101568.78;5114348;27;45840;-77
2023/09/06 05:14:12;;;;;;;;;6.67;6.00;;;;;29.21;45.67;101583.59;5115570;27;45482;-77
2023/09/06 05:16:37;;;;;;;;;8.00;6.00;;;;;29.14;45.47;101578.25;5097891;27;45362;-77
2023/09/06 05:19:03;;;;;;;;;8.00;6.00;;;;;29.15;45.95;101579.88;5093850;27;45541;-77
2023/09/06 05:21:28;;;;;;;;;4.67;4.67;;;;;29.18;45.79;101584.81;5117824;27;45316;-77
2023/09/06 05:23:54;;;;;;;;;7.67;7.00;;;;;29.17;45.26;101584.00;5131037;27;45604;-77
2023/09/06 05:26:20;;;;;;;;;9.00;7.67;;;;;29.04;45.10;101576.00;5119070;27;45254;-76
2023/09/06 05:28:47;;;;;;;;;7.67;6.33;;;;;28.89;44.87;101586.94;5116708;27;48096;-81
2023/09/06 05:31:12;;;;;;;;;9.67;9.33;;;;;28.75;45.09;101589.66;5118188;27;45470;-79
2023/09/06 05:33:38;;;;;;;;;11.67;10.67;;;;;28.60;45.01;101598.72;5123527;27;45257;-77
2023/09/06 05:36:03;;;;;;;;;8.67;8.67;;;;;28.52;45.49;101598.97;5119205;27;45650;-79
2023/09/06 05:38:28;;;;;;;;;8.33;8.00;;;;;28.37;45.59;101597.25;5113390;27;47955;-77
2023/09/06 05:40:54;;;;;;;;;10.00;9.33;;;;;28.25;46.03;101599.75;5115910;27;45395;-79
2023/09/06 05:43:19;;;;;;;;;11.33;10.00;;;;;28.19;45.80;101608.56;5118402;27;45725;-77
2023/09/06 05:45:44;;;;;;;;;11.33;10.33;;;;;28.18;45.78;101617.63;5100967;27;45859;-79
2023/09/06 05:48:10;;;;;;;;;10.67;10.67;;;;;28.05;45.95;101610.41;5112757;27;46541;-79
2023/09/06 05:50:35;;;;;;;;;12.00;11.67;;;;;27.95;46.26;101608.94;5116959;27;45415;-79
2023/09/06 05:53:00;;;;;;;;;13.33;13.00;;;;;27.91;46.47;101618.41;5112815;27;45286;-79
2023/09/06 05:55:26;;;;;;;;;13.67;10.67;;;;;27.81;46.16;101624.16;5114108;27;45239;-78
2023/09/06 05:57:51;;;;;;;;;13.00;11.33;;;;;27.73;46.82;101622.44;5116210;27;46332;-78
2023/09/06 06:00:17;;;;;;;;;12.67;12.00;;;;;27.67;46.66;101617.88;5118112;27;45301;-78
2023/09/06 06:02:44;;;;;;;;;13.33;12.00;;;;;27.58;46.60;101609.22;5118135;27;45418;-78
2023/09/06 06:05:12;;;;;;;;;11.00;11.00;;;;;27.55;46.48;101612.31;5118075;27;45669;-78
2023/09/06 06:07:37;;;;;;;;;14.00;11.33;;;;;27.49;47.17;101615.75;5118843;27;46387;-77
2023/09/06 06:10:03;;;;;;;;;10.00;10.00;;;;;27.46;47.03;101616.16;5118188;27;45601;-78
2023/09/06 06:12:28;;;;;;;;;12.33;11.33;;;;;27.39;47.38;101610.78;5108901;27;45308;-78
2023/09/06 06:14:54;;;;;;;;;13.67;12.67;;;;;27.39;47.50;101618.81;5118161;27;45355;-78
2023/09/06 06:17:19;;;;;;;;;11.00;10.67;;;;;27.40;47.63;101634.63;5118464;27;46396;-78
2023/09/06 06:19:47;;;;;;;;;11.00;11.00;;;;;27.31;47.77;101617.13;5118022;27;45356;-77
2023/09/06 06:22:12;;;;;;;;;14.67;13.67;;;;;27.31;47.78;101618.97;5118131;27;45426;-78
2023/09/06 06:24:37;;;;;;;;;12.67;12.67;;;;;27.31;47.84;101627.81;5099603;27;45347;-78
2023/09/06 06:27:04;;;;;;;;;15.00;14.00;;;;;27.29;47.38;101632.53;5124952;27;45422;-78
2023/09/06 06:29:29;;;;;;;;;14.00;13.00;;;;;27.31;47.79;101635.81;5119866;27;45393;-78
2023/09/06 06:31:55;;;;;;;;;12.50;11.50;;;;;27.29;47.81;101637.88;5105242;27;45392;-78
2023/09/06 06:34:21;;;;;;;;;12.67;11.00;;;;;27.32;47.82;101639.31;5097025;27;45324;-78
2023/09/06 06:36:46;;;;;;;;;11.67;11.67;;;;;27.22;47.97;101629.81;5116914;27;45359;-77
2023/09/06 06:39:12;;;;;;;;;13.00;11.33;;;;;27.23;47.63;101633.31;5117862;27;45366;-77
2023/09/06 06:41:38;;;;;;;;;15.00;13.33;;;;;27.28;47.67;101644.22;5117966;27;45513;-78
2023/09/06 06:44:05;;;;;;;;;13.33;12.00;;;;;27.20;47.46;101634.53;5117832;27;45574;-78
2023/09/06 06:46:33;;;;;;;;;12.00;11.00;;;;;27.27;47.81;101639.91;5115974;27;45712;-78
2023/09/06 06:48:59;;;;;;;;;13.00;13.00;;;;;27.26;47.74;101639.09;5117910;27;45574;-78
2023/09/06 06:51:38;;;;;;;;;10.33;10.33;;;;;27.22;48.26;101635.16;5105688;27;45346;-78
2023/09/06 06:54:08;;;;;;;;;13.00;12.00;;;;;27.21;48.00;101633.50;5121137;27;45373;-78
2023/09/06 06:56:37;;;;;;;;;13.33;13.33;;;;;27.29;47.57;101645.88;5122225;27;46635;-79
2023/09/06 06:59:03;;;;;;;;;17.25;16.00;;;;;27.26;47.95;101643.59;5100695;27;45585;-78
2023/09/06 07:01:30;;;;;;;;;14.33;14.00;;;;;27.33;47.68;101646.31;5115225;27;45397;-78
2023/09/06 07:03:56;;;;;;;;;13.33;12.00;;;;;27.36;48.34;101649.41;5119056;27;45414;-82
2023/09/06 07:06:23;;;;;;;;;17.67;13.00;;;;;27.46;47.97;101656.22;5111109;27;45494;-83
2023/09/06 07:08:49;;;;;;;;;12.33;11.67;;;;;27.56;47.52;101658.56;5110168;27;45456;-83
2023/09/06 07:11:16;;;;;;;;;13.00;13.00;;;;;27.58;47.45;101653.84;5118665;27;45516;-83
2023/09/06 07:13:42;;;;;;;;;16.00;14.67;;;;;27.73;47.63;101665.22;5116418;27;45633;-83
2023/09/06 07:16:08;;;;;;;;;13.00;12.67;;;;;27.80;47.79;101670.63;5116751;27;45486;-80
2023/09/06 07:18:34;;;;;;;;;11.67;11.33;;;;;27.83;46.94;101662.19;5115908;27;45347;-80
2023/09/06 07:21:00;;;;;;;;;12.33;12.00;;;;;27.94;47.13;101666.16;5126407;27;45401;-81
2023/09/06 07:23:26;;;;;;;;;14.33;13.33;;;;;27.99;47.31;101676.22;5116290;27;45527;-80
2023/09/06 07:25:52;;;;;;;;;14.00;14.00;;;;;28.01;46.79;101660.81;5125507;27;46720;-81
2023/09/06 07:28:18;;;;;;;;;13.67;11.67;;;;;28.09;46.83;101678.53;5098481;27;45312;-81
2023/09/06 07:30:43;;;;;;;;;16.67;13.00;;;;;28.13;47.23;101674.41;5118688;27;45537;-80
2023/09/06 07:33:10;;;;;;;;;13.67;10.67;;;;;28.06;46.98;101646.81;5103975;27;45569;-80
2023/09/06 07:35:35;;;;;;;;;13.00;12.00;;;;;28.24;46.96;101672.16;5122403;27;46718;-80
2023/09/06 07:38:01;;;;;;;;;13.67;13.00;;;;;28.25;46.83;101676.50;5116467;27;45394;-81
2023/09/06 07:40:26;;;;;;;;;14.00;12.33;;;;;28.26;47.03;101672.81;5116744;27;45402;-80
2023/09/06 07:42:52;;;;;;;;;11.67;11.67;;;;;28.32;46.20;101674.66;5101900;27;45523;-80
2023/09/06 07:45:18;;;;;;;;;11.67;11.33;;;;;28.36;46.46;101691.13;5117267;27;45776;-81
2023/09/06 07:47:44;;;;;;;;;10.00;10.00;;;;;28.37;46.71;101692.78;5117477;27;45289;-81
2023/09/06 07:50:09;;;;;;;;;14.33;14.33;;;;;28.39;46.23;101691.53;5102106;27;45487;-81
2023/09/06 07:52:36;;;;;;;;;11.33;10.00;;;;;28.39;46.15;101685.38;5115121;27;45484;-81
2023/09/06 07:55:02;;;;;;;;;10.00;10.00;;;;;28.46;46.33;101696.13;5117728;27;45480;-81
2023/09/06 07:57:28;;;;;;;;;11.00;11.00;;;;;28.49;46.57;101693.88;5115816;27;45388;-81
2023/09/06 07:59:53;;;;;;;;;13.67;13.00;;;;;28.48;46.82;101692.22;5114529;27;45440;-81
2023/09/06 08:02:18;;;;;;;;;14.00;12.33;;;;;28.43;46.74;101677.75;5116738;27;45445;-81
2023/09/06 08:04:44;;;;;;;;;9.33;9.33;;;;;28.47;46.10;101679.84;5116199;27;46424;-80
2023/09/06 08:07:09;;;;;;;;;13.00;11.33;;;;;28.51;46.42;101681.09;5092302;27;45488;-80
2023/09/06 08:09:35;;;;;;;;;17.00;13.00;;;;;28.54;46.29;101677.19;5092679;27;45338;-80
2023/09/06 08:12:00;;;;;;;;;9.67;8.67;;;;;28.59;46.36;101689.97;5107964;27;45373;-81
2023/09/06 08:14:25;;;;;;;;;11.00;11.00;;;;;28.53;46.51;101678.22;5098414;27;46670;-81
2023/09/06 08:16:51;;;;;;;;;12.00;10.33;;;;;28.60;46.46;101689.75;5116970;27;45560;-80
2023/09/06 08:19:16;;;;;;;;;12.67;11.67;;;;;28.56;46.18;101682.31;5114544;27;45413;-81
2023/09/06 08:21:42;;;;;;;;;10.67;10.67;;;;;28.65;46.03;101699.81;5117722;27;45356;-81
2023/09/06 08:24:08;;;;;;;;;12.33;10.33;;;;;28.52;46.15;101671.22;5118766;27;46947;-80
2023/09/06 08:26:33;;;;;;;;;14.00;12.00;;;;;28.62;46.28;101682.31;5097748;27;45414;-81
2023/09/06 08:28:58;;;;;;;;;10.67;10.67;;;;;28.70;46.16;101693.88;5116635;27;45502;-81
2023/09/06 08:31:24;;;;;;;;;10.67;9.67;;;;;28.63;46.12;101683.97;5098370;27;45320;-80
2023/09/06 08:33:49;;;;;;;;;11.67;11.33;;;;;28.64;46.26;101676.78;5116740;27;46817;-80
2023/09/06 08:36:15;;;;;;;;;11.33;11.33;;;;;28.71;46.14;101692.84;5098172;27;45502;-81
2023/09/06 08:38:41;;;;;;;;;14.00;12.00;;;;;28.68;46.14;101687.88;5117460;27;45426;-81
2023/09/06 08:41:09;;;;;;;;;11.00;10.67;;;;;28.69;46.36;101690.38;5103049;27;45725;-81
2023/09/06 08:43:41;;;;;;;;;14.00;11.67;;;;;28.74;46.17;101703.13;5100334;27;46470;-81
2023/09/06 08:46:33;;;;;;;;;12.67;10.00;;;;;28.78;46.04;101704.38;5108045;27;45348;-81
2023/09/06 08:49:03;;;;;;;;;11.00;11.00;;;;;28.76;46.16;101694.88;5095273;27;45577;-81
2023/09/06 08:51:35;;;;;;;;;12.00;10.00;;;;;28.80;45.95;101696.97;5116266;27;45362;-81
2023/09/06 08:54:03;;;;;;;;;10.00;9.00;;;;;28.76;45.50;101689.53;5098531;27;46329;-81
2023/09/06 08:56:30;;;;;;;;;10.00;9.00;;;;;28.79;46.09;101694.47;5120315;27;45403;-82
2023/09/06 08:58:57;;;;;;;;;10.00;10.00;;;;;28.81;45.81;101687.06;5089390;27;45269;-81
2023/09/06 09:01:22;;;;;;;;;12.67;11.00;;;;;28.79;46.11;101687.28;5101853;27;45438;-81
2023/09/06 09:03:48;;;;;;;;;11.00;11.00;;;;;28.80;46.18;101691.63;5102143;27;45485;-81
2023/09/06 09:06:13;;;;;;;;;11.67;11.00;;;;;28.83;46.08;101685.81;5112727;27;45368;-81
2023/09/06 09:08:38;;;;;;;;;14.00;11.00;;;;;28.81;45.35;101679.84;5101822;27;45446;-81
2023/09/06 09:11:12;;;;;;;;;12.33;12.33;;;;;28.91;46.13;101692.03;5119918;27;45411;-81
2023/09/06 09:13:38;;;;;;;;;12.00;10.00;;;;;28.91;45.53;101687.47;5108265;27;45470;-80
2023/09/06 09:16:14;;;;;;;;;12.67;11.00;;;;;28.90;45.76;101682.34;5120225;27;45456;-81
2023/09/06 09:18:41;;;;;;;;;13.00;10.67;;;;;28.92;45.55;101666.88;5121260;27;45374;-81
2023/09/06 09:21:09;;;;;;;;;10.33;9.33;;;;;28.89;45.51;101657.41;5106501;27;45584;-81
2023/09/06 09:23:50;;;;;;;;;11.33;10.33;;;;;28.98;45.73;101675.94;5120584;27;46653;-81
2023/09/06 09:26:19;;;;;;;;;10.00;10.00;;;;;28.91;45.74;101668.72;5120011;27;45354;-81
2023/09/06 09:28:44;;;;;;;;;11.33;10.00;;;;;28.80;46.32;101651.44;5112610;27;45358;-81
2023/09/06 09:31:13;;;;;;;;;15.00;11.00;;;;;28.93;45.83;101674.72;5119574;27;45409;-80
2023/09/06 09:33:39;;;;;;;;;11.00;9.00;;;;;28.96;45.93;101678.84;5119326;27;45660;-81
2023/09/06 09:36:05;;;;;;;;;8.33;8.33;;;;;28.92;45.41;101667.69;5118806;27;45662;-80
2023/09/06 09:38:30;;;;;;;;;8.00;8.00;;;;;28.92;45.94;101666.88;5119491;27;45443;-81
2023/09/06 09:41:06;;;;;;;;;11.00;10.33;;;;;28.95;45.77;101669.97;5118985;27;45389;-80
2023/09/06 09:43:32;;;;;;;;;8.33;8.33;;;;;28.95;45.50;101671.81;5119189;27;45624;-81
2023/09/06 09:45:57;;;;;;;;;9.33;8.67;;;;;28.90;46.21;101658.22;5118934;27;45520;-80
2023/09/06 09:48:29;;;;;;;;;8.67;8.67;;;;;28.95;46.23;101671.81;5123692;27;45685;-81
2023/09/06 09:50:55;;;;;;;;;10.33;9.00;;;;;28.98;46.25;101675.94;5120659;27;45578;-80
2023/09/06 09:53:25;;;;;;;;;12.33;10.67;;;;;28.95;46.24;101669.13;5119433;27;46232;-81
2023/09/06 09:55:55;;;;;;;;;9.33;9.00;;;;;28.94;45.92;101673.66;5101064;27;45434;-81
2023/09/06 09:58:21;;;;;;;;;9.33;9.00;;;;;28.95;45.93;101671.81;5128078;27;45471;-81
2023/09/06 10:00:50;;;;;;;;;11.00;11.00;;;;;29.01;46.24;101672.84;5118218;27;45586;-81
2023/09/06 10:03:16;;;;;;;;;15.33;11.33;;;;;28.98;45.87;101665.22;5117894;27;47258;-81
2023/09/06 10:05:42;;;;;;;;;8.33;7.00;;;;;28.98;45.87;101655.34;5117089;27;45475;-80
2023/09/06 10:08:09;;;;;;;;;9.67;9.67;;;;;29.05;45.88;101669.53;5099479;27;45414;-80
2023/09/06 10:10:41;;;;;;;;;11.67;10.33;;;;;28.93;45.57;101639.91;5108638;27;45554;-80
2023/09/06 10:13:08;;;;;;;;;11.00;10.00;;;;;29.07;46.30;101662.09;5117576;27;45367;-81
2023/09/06 10:15:34;;;;;;;;;10.33;9.33;;;;;29.10;45.45;101666.25;5117968;27;45442;-81
2023/09/06 10:18:00;;;;;;;;;10.33;9.33;;;;;29.06;46.04;101663.16;5118150;27;45321;-81
2023/09/06 10:20:30;;;;;;;;;6.00;6.00;;;;;29.06;46.39;101662.34;5120919;27;45420;-80
2023/09/06 10:22:57;;;;;;;;;10.00;9.67;;;;;29.02;45.78;101651.19;5117962;27;46409;-80
2023/09/06 10:25:25;;;;;;;;;10.00;10.00;;;;;29.10;45.87;101660.06;5118308;27;45513;-80
2023/09/06 10:27:59;;;;;;;;;10.33;10.33;;;;;29.14;45.64;101669.34;5118439;27;45357;-80
2023/09/06 10:30:44;;;;;;;;;9.00;8.67;;;;;29.14;45.74;101669.34;5098945;27;45447;-78
2023/09/06 10:33:31;;;;;;;;;10.00;9.00;;;;;29.12;45.56;101655.34;5095490;27;46902;-81
2023/09/06 10:36:04;;;;;;;;;9.00;9.00;;;;;29.05;45.76;101650.78;5092883;27;45552;-79
2023/09/06 10:38:35;;;;;;;;;12.33;8.33;;;;;29.06;45.69;101648.94;5101347;27;45462;-81
2023/09/06 10:41:00;;;;;;;;;11.33;10.67;;;;;29.12;45.49;101653.47;5118125;27;45490;-79
2023/09/06 10:43:42;;;;;;;;;8.33;8.33;;;;;29.09;45.72;101643.19;5117579;27;46034;-79
2023/09/06 10:46:07;;;;;;;;;8.67;8.67;;;;;29.16;45.73;101653.88;5110472;27;45692;-80
2023/09/06 10:48:33;;;;;;;;;10.67;8.33;;;;;29.11;45.82;101633.09;5099459;27;45497;-79
2023/09/06 10:51:06;;;;;;;;;10.67;10.67;;;;;29.19;46.07;101637.41;5118228;27;46238;-80
2023/09/06 10:53:33;;;;;;;;;9.33;8.33;;;;;29.09;45.99;101616.41;5117835;27;46367;-78
2023/09/06 10:56:00;;;;;;;;;12.00;10.00;;;;;29.15;46.50;101630.78;5109805;27;45735;-78
2023/09/06 10:58:27;;;;;;;;;9.00;7.67;;;;;29.14;46.14;101631.84;5112287;27;46165;-78
2023/09/06 11:01:12;;;;;;;;;9.33;9.00;;;;;29.23;46.13;101632.41;5117366;27;45527;-77
2023/09/06 11:03:38;;;;;;;;;10.33;10.33;;;;;29.23;46.14;101635.94;5115010;27;46548;-79
2023/09/06 11:06:04;;;;;;;;;11.00;9.33;;;;;29.15;46.47;101617.41;5084119;27;45583;-78
2023/09/06 11:08:31;;;;;;;;;11.00;10.33;;;;;29.25;46.66;101633.06;5112603;27;45433;-77
2023/09/06 11:11:10;;;;;;;;;11.00;9.67;;;;;29.23;46.46;101619.03;5107990;27;45340;-78
2023/09/06 11:13:41;;;;;;;;;10.33;10.33;;;;;29.16;46.40;101614.53;5114886;27;47489;-77
2023/09/06 11:16:15;;;;;;;;;10.00;9.67;;;;;29.23;46.41;101614.50;5098363;27;46039;-76
2023/09/06 11:18:48;;;;;;;;;9.67;8.33;;;;;29.31;46.62;101626.00;5099296;27;45423;-77
2023/09/06 11:21:24;;;;;;;;;9.00;7.00;;;;;29.30;46.87;101625.22;5115030;27;45646;-77